sensor_id;sensor_type;location;lat;lon;timestamp;pressure;altitude;pressure_sealevel;temperature;humidity
2785;BME280;57944;48.722;9.316;2023-03-21T00:00:53;98304.50;;;8.32;100.00
2785;BME280;57944;48.722;9.316;2023-03-21T00:03:30;98296.25;;;8.30;100.00
2785;BME280;57944;48.722;9.316;2023-03-21T00:06:13;98298.75;;;8.15;100.00
2785;BME280;57944;48.722;9.316;2023-03-21T00:09:07;98304.31;;;8.11;100.00
2785;BME280;57944;48.722;9.316;2023-03-21T00:19:26;98295.38;;;8.23;100.00
2785;BME280;57944;48.722;9.316;2023-03-21T00:28:13;98294.59;;;8.22;100.00
2785;BME280;57944;48.722;9.316;2023-03-21T00:30:43;98288.97;;;8.27;100.00
2785;BME280;57944;48.722;9.316;2023-03-21T00:33:13;98278.66;;;8.28;100.00
2785;BME280;57944;48.722;9.316;2023-03-21T00:35:51;98284.44;;;8.22;100.00
2785;BME280;57944;48.722;9.316;2023-03-21T00:38:32;98284.25;;;8.24;100.00
2785;BME280;57944;48.722;9.316;2023-03-21T00:41:03;98278.22;;;8.25;100.00
2785;BME280;57944;48.722;9.316;2023-03-21T00:43:52;98276.91;;;8.29;100.00
2785;BME280;57944;48.722;9.316;2023-03-21T00:46:23;98273.59;;;8.28;100.00
2785;BME280;57944;48.722;9.316;2023-03-21T00:49:02;98272.28;;;8.33;100.00
2785;BME280;57944;48.722;9.316;2023-03-21T00:51:32;98270.56;;;8.33;100.00
2785;BME280;57944;48.722;9.316;2023-03-21T00:54:04;98261.19;;;8.34;100.00
2785;BME280;57944;48.722;9.316;2023-03-21T00:56:34;98253.38;;;8.35;100.00
2785;BME280;57944;48.722;9.316;2023-03-21T00:59:06;98255.31;;;8.33;100.00
2785;BME280;57944;48.722;9.316;2023-03-21T01:01:36;98258.81;;;8.32;100.00
2785;BME280;57944;48.722;9.316;2023-03-21T01:04:07;98266.59;;;8.31;100.00
2785;BME280;57944;48.722;9.316;2023-03-21T01:06:41;98259.63;;;8.24;100.00
2785;BME280;57944;48.722;9.316;2023-03-21T01:09:14;98251.72;;;8.27;100.00
2785;BME280;57944;48.722;9.316;2023-03-21T01:11:44;98252.31;;;8.29;100.00
2785;BME280;57944;48.722;9.316;2023-03-21T01:14:18;98247.22;;;8.29;100.00
2785;BME280;57944;48.722;9.316;2023-03-21T01:16:50;98252.59;;;8.35;100.00
2785;BME280;57944;48.722;9.316;2023-03-21T01:19:22;98255.72;;;8.45;100.00
2785;BME280;57944;48.722;9.316;2023-03-21T01:22:14;98251.94;;;8.41;100.00
2785;BME280;57944;48.722;9.316;2023-03-21T01:24:44;98251.88;;;8.49;100.00
2785;BME280;57944;48.722;9.316;2023-03-21T01:27:34;98249.69;;;8.46;100.00
2785;BME280;57944;48.722;9.316;2023-03-21T01:30:08;98236.34;;;8.44;100.00
2785;BME280;57944;48.722;9.316;2023-03-21T01:32:48;98250.03;;;8.43;100.00
2785;BME280;57944;48.722;9.316;2023-03-21T01:35:18;98248.09;;;8.45;100.00
2785;BME280;57944;48.722;9.316;2023-03-21T01:37:49;98247.16;;;8.38;100.00
2785;BME280;57944;48.722;9.316;2023-03-21T01:40:21;98250.69;;;8.37;100.00
2785;BME280;57944;48.722;9.316;2023-03-21T01:42:57;98248.13;;;8.37;100.00
2785;BME280;57944;48.722;9.316;2023-03-21T01:48:51;98237.41;;;8.49;100.00
2785;BME280;57944;48.722;9.316;2023-03-21T01:51:23;98239.72;;;8.44;100.00
2785;BME280;57944;48.722;9.316;2023-03-21T01:53:56;98237.94;;;8.45;100.00
2785;BME280;57944;48.722;9.316;2023-03-21T01:56:32;98229.34;;;8.46;100.00
2785;BME280;57944;48.722;9.316;2023-03-21T01:59:17;98230.25;;;8.53;100.00
2785;BME280;57944;48.722;9.316;2023-03-21T02:02:12;98229.72;;;8.58;100.00
2785;BME280;57944;48.722;9.316;2023-03-21T02:05:03;98234.13;;;8.64;100.00
2785;BME280;57944;48.722;9.316;2023-03-21T02:07:34;98228.53;;;8.68;100.00
2785;BME280;57944;48.722;9.316;2023-03-21T02:10:10;98221.16;;;8.73;100.00
2785;BME280;57944;48.722;9.316;2023-03-21T02:12:45;98224.69;;;8.72;100.00
2785;BME280;57944;48.722;9.316;2023-03-21T02:15:15;98220.81;;;8.77;100.00
2785;BME280;57944;48.722;9.316;2023-03-21T02:18:07;98219.13;;;8.69;100.00
2785;BME280;57944;48.722;9.316;2023-03-21T02:21:33;98219.41;;;8.74;100.00
2785;BME280;57944;48.722;9.316;2023-03-21T02:24:25;98215.94;;;8.75;100.00
2785;BME280;57944;48.722;9.316;2023-03-21T02:27:06;98209.09;;;8.76;100.00
2785;BME280;57944;48.722;9.316;2023-03-21T02:33:12;98212.94;;;8.71;100.00
2785;BME280;57944;48.722;9.316;2023-03-21T02:35:52;98217.06;;;8.72;100.00
2785;BME280;57944;48.722;9.316;2023-03-21T02:38:46;98214.53;;;8.72;100.00
2785;BME280;57944;48.722;9.316;2023-03-21T02:41:28;98212.06;;;8.64;100.00
2785;BME280;57944;48.722;9.316;2023-03-21T02:44:11;98211.22;;;8.49;100.00
2785;BME280;57944;48.722;9.316;2023-03-21T02:46:49;98205.22;;;8.50;100.00
2785;BME280;57944;48.722;9.316;2023-03-21T02:49:35;98209.03;;;8.46;100.00
2785;BME280;57944;48.722;9.316;2023-03-21T02:52:14;98207.81;;;8.42;100.00
2785;BME280;57944;48.722;9.316;2023-03-21T02:55:09;98202.75;;;8.42;100.00
2785;BME280;57944;48.722;9.316;2023-03-21T02:57:55;98199.25;;;8.35;100.00
2785;BME280;57944;48.722;9.316;2023-03-21T03:00:40;98201.03;;;8.34;100.00
2785;BME280;57944;48.722;9.316;2023-03-21T03:03:19;98190.31;;;8.24;100.00
2785;BME280;57944;48.722;9.316;2023-03-21T03:06:03;98193.81;;;8.23;100.00
2785;BME280;57944;48.722;9.316;2023-03-21T03:08:50;98204.94;;;8.22;100.00
2785;BME280;57944;48.722;9.316;2023-03-21T03:11:33;98198.44;;;8.19;100.00
2785;BME280;57944;48.722;9.316;2023-03-21T03:14:29;98199.75;;;8.15;100.00
2785;BME280;57944;48.722;9.316;2023-03-21T03:17:40;98202.28;;;8.15;100.00
2785;BME280;57944;48.722;9.316;2023-03-21T03:20:19;98199.25;;;8.20;100.00
2785;BME280;57944;48.722;9.316;2023-03-21T03:22:57;98202.41;;;8.22;100.00
2785;BME280;57944;48.722;9.316;2023-03-21T03:25:35;98205.16;;;8.12;100.00
2785;BME280;57944;48.722;9.316;2023-03-21T03:28:18;98199.47;;;8.10;100.00
2785;BME280;57944;48.722;9.316;2023-03-21T03:30:50;98200.25;;;8.11;100.00
2785;BME280;57944;48.722;9.316;2023-03-21T03:33:42;98206.56;;;8.15;100.00
2785;BME280;57944;48.722;9.316;2023-03-21T03:36:15;98196.63;;;8.05;100.00
2785;BME280;57944;48.722;9.316;2023-03-21T03:39:00;98195.84;;;8.04;100.00
2785;BME280;57944;48.722;9.316;2023-03-21T03:41:34;98200.03;;;7.97;100.00
2785;BME280;57944;48.722;9.316;2023-03-21T03:44:33;98203.38;;;7.98;100.00
2785;BME280;57944;48.722;9.316;2023-03-21T03:47:07;98191.75;;;8.03;100.00
2785;BME280;57944;48.722;9.316;2023-03-21T03:50:00;98189.50;;;8.09;100.00
2785;BME280;57944;48.722;9.316;2023-03-21T03:52:37;98179.63;;;8.14;100.00
2785;BME280;57944;48.722;9.316;2023-03-21T03:55:23;98181.91;;;8.61;100.00
2785;BME280;57944;48.722;9.316;2023-03-21T03:58:07;98183.25;;;8.87;100.00
2785;BME280;57944;48.722;9.316;2023-03-21T04:00:53;98183.66;;;9.05;100.00
2785;BME280;57944;48.722;9.316;2023-03-21T04:03:23;98184.28;;;8.92;100.00
2785;BME280;57944;48.722;9.316;2023-03-21T04:05:56;98180.50;;;8.73;100.00
2785;BME280;57944;48.722;9.316;2023-03-21T04:08:26;98176.22;;;8.74;100.00
2785;BME280;57944;48.722;9.316;2023-03-21T04:10:57;98180.69;;;8.87;100.00
2785;BME280;57944;48.722;9.316;2023-03-21T04:13:27;98177.81;;;8.90;100.00
2785;BME280;57944;48.722;9.316;2023-03-21T04:16:22;98176.13;;;8.82;100.00
2785;BME280;57944;48.722;9.316;2023-03-21T04:18:52;98177.88;;;8.82;100.00
2785;BME280;57944;48.722;9.316;2023-03-21T04:21:22;98174.38;;;8.83;100.00
2785;BME280;57944;48.722;9.316;2023-03-21T04:23:53;98168.25;;;8.77;100.00
2785;BME280;57944;48.722;9.316;2023-03-21T04:26:23;98174.09;;;8.63;100.00
2785;BME280;57944;48.722;9.316;2023-03-21T04:29:31;98172.25;;;8.42;100.00
2785;BME280;57944;48.722;9.316;2023-03-21T04:32:25;98175.41;;;8.21;100.00
2785;BME280;57944;48.722;9.316;2023-03-21T04:35:08;98175.25;;;7.99;100.00
2785;BME280;57944;48.722;9.316;2023-03-21T04:37:38;98173.59;;;7.92;100.00
2785;BME280;57944;48.722;9.316;2023-03-21T04:40:13;98174.63;;;7.74;100.00
2785;BME280;57944;48.722;9.316;2023-03-21T04:42:44;98179.59;;;7.68;100.00
2785;BME280;57944;48.722;9.316;2023-03-21T04:45:15;98172.53;;;7.55;100.00
2785;BME280;57944;48.722;9.316;2023-03-21T04:47:48;98165.59;;;7.49;100.00
2785;BME280;57944;48.722;9.316;2023-03-21T04:50:18;98171.69;;;7.39;100.00
2785;BME280;57944;48.722;9.316;2023-03-21T04:52:48;98168.00;;;7.19;100.00
2785;BME280;57944;48.722;9.316;2023-03-21T04:55:19;98173.44;;;7.08;100.00
2785;BME280;57944;48.722;9.316;2023-03-21T04:57:52;98168.88;;;6.95;100.00
2785;BME280;57944;48.722;9.316;2023-03-21T05:00:22;98172.19;;;6.96;100.00
2785;BME280;57944;48.722;9.316;2023-03-21T05:02:55;98170.97;;;6.83;100.00
2785;BME280;57944;48.722;9.316;2023-03-21T05:05:26;98166.22;;;6.80;100.00
2785;BME280;57944;48.722;9.316;2023-03-21T05:07:56;98169.34;;;6.90;100.00
2785;BME280;57944;48.722;9.316;2023-03-21T05:10:26;98172.50;;;6.92;100.00
2785;BME280;57944;48.722;9.316;2023-03-21T05:12:56;98166.38;;;6.79;100.00
2785;BME280;57944;48.722;9.316;2023-03-21T05:15:27;98171.91;;;6.74;100.00
2785;BME280;57944;48.722;9.316;2023-03-21T05:17:59;98164.59;;;6.87;100.00
2785;BME280;57944;48.722;9.316;2023-03-21T05:20:41;98171.25;;;6.97;100.00
2785;BME280;57944;48.722;9.316;2023-03-21T05:23:13;98167.66;;;7.22;100.00
2785;BME280;57944;48.722;9.316;2023-03-21T05:25:44;98175.69;;;7.34;100.00
2785;BME280;57944;48.722;9.316;2023-03-21T05:28:19;98170.44;;;7.35;100.00
2785;BME280;57944;48.722;9.316;2023-03-21T05:30:58;98170.56;;;7.42;100.00
2785;BME280;57944;48.722;9.316;2023-03-21T05:33:31;98177.34;;;7.50;100.00
2785;BME280;57944;48.722;9.316;2023-03-21T05:36:01;98182.69;;;7.55;100.00
2785;BME280;57944;48.722;9.316;2023-03-21T05:38:31;98187.16;;;7.53;100.00
2785;BME280;57944;48.722;9.316;2023-03-21T05:41:01;98183.44;;;7.64;100.00
2785;BME280;57944;48.722;9.316;2023-03-21T05:43:31;98181.66;;;7.72;100.00
2785;BME280;57944;48.722;9.316;2023-03-21T05:46:01;98186.03;;;7.78;100.00
2785;BME280;57944;48.722;9.316;2023-03-21T05:48:35;98193.59;;;7.87;100.00
2785;BME280;57944;48.722;9.316;2023-03-21T05:51:16;98191.00;;;7.95;100.00
2785;BME280;57944;48.722;9.316;2023-03-21T05:53:46;98193.50;;;8.03;100.00
2785;BME280;57944;48.722;9.316;2023-03-21T05:56:17;98185.63;;;8.13;100.00
2785;BME280;57944;48.722;9.316;2023-03-21T05:58:51;98191.78;;;8.18;100.00
2785;BME280;57944;48.722;9.316;2023-03-21T06:01:23;98192.06;;;8.23;100.00
2785;BME280;57944;48.722;9.316;2023-03-21T06:04:07;98191.09;;;8.24;100.00
2785;BME280;57944;48.722;9.316;2023-03-21T06:06:38;98191.09;;;8.24;100.00
2785;BME280;57944;48.722;9.316;2023-03-21T06:09:08;98187.88;;;8.31;100.00
2785;BME280;57944;48.722;9.316;2023-03-21T06:11:46;98192.94;;;8.39;100.00
2785;BME280;57944;48.722;9.316;2023-03-21T06:14:27;98193.91;;;8.53;100.00
2785;BME280;57944;48.722;9.316;2023-03-21T06:17:20;98191.09;;;8.62;100.00
2785;BME280;57944;48.722;9.316;2023-03-21T06:19:57;98197.31;;;8.75;100.00
2785;BME280;57944;48.722;9.316;2023-03-21T06:22:34;98186.81;;;8.63;100.00
2785;BME280;57944;48.722;9.316;2023-03-21T06:25:06;98188.41;;;8.79;100.00
2785;BME280;57944;48.722;9.316;2023-03-21T06:27:36;98195.66;;;8.97;100.00
2785;BME280;57944;48.722;9.316;2023-03-21T06:30:08;98195.25;;;8.93;100.00
2785;BME280;57944;48.722;9.316;2023-03-21T06:32:47;98200.84;;;9.03;100.00
2785;BME280;57944;48.722;9.316;2023-03-21T06:35:19;98197.50;;;9.17;100.00
2785;BME280;57944;48.722;9.316;2023-03-21T06:37:49;98204.25;;;9.25;100.00
2785;BME280;57944;48.722;9.316;2023-03-21T06:40:20;98194.16;;;9.32;100.00
2785;BME280;57944;48.722;9.316;2023-03-21T06:42:51;98195.72;;;9.33;100.00
2785;BME280;57944;48.722;9.316;2023-03-21T06:45:21;98187.84;;;9.28;100.00
2785;BME280;57944;48.722;9.316;2023-03-21T06:47:52;98192.13;;;9.27;100.00
2785;BME280;57944;48.722;9.316;2023-03-21T06:50:34;98193.38;;;9.31;100.00
2785;BME280;57944;48.722;9.316;2023-03-21T06:53:04;98206.25;;;9.30;100.00
2785;BME280;57944;48.722;9.316;2023-03-21T06:55:53;98202.66;;;9.24;100.00
2785;BME280;57944;48.722;9.316;2023-03-21T06:58:23;98196.53;;;9.33;100.00
2785;BME280;57944;48.722;9.316;2023-03-21T07:00:57;98194.31;;;9.30;100.00
2785;BME280;57944;48.722;9.316;2023-03-21T07:03:28;98197.91;;;9.36;100.00
2785;BME280;57944;48.722;9.316;2023-03-21T07:06:06;98198.69;;;9.51;100.00
2785;BME280;57944;48.722;9.316;2023-03-21T07:08:38;98199.19;;;9.61;100.00
2785;BME280;57944;48.722;9.316;2023-03-21T07:11:08;98186.94;;;9.72;100.00
2785;BME280;57944;48.722;9.316;2023-03-21T07:13:39;98192.53;;;9.82;100.00
2785;BME280;57944;48.722;9.316;2023-03-21T07:16:09;98190.84;;;9.89;100.00
2785;BME280;57944;48.722;9.316;2023-03-21T07:18:39;98195.31;;;10.09;100.00
2785;BME280;57944;48.722;9.316;2023-03-21T07:21:13;98193.41;;;10.67;100.00
2785;BME280;57944;48.722;9.316;2023-03-21T07:23:43;98185.59;;;11.71;100.00
2785;BME280;57944;48.722;9.316;2023-03-21T07:26:15;98186.81;;;12.68;97.50
2785;BME280;57944;48.722;9.316;2023-03-21T07:28:44;98186.53;;;14.12;85.81
2785;BME280;57944;48.722;9.316;2023-03-21T07:31:16;98187.22;;;15.06;72.78
2785;BME280;57944;48.722;9.316;2023-03-21T07:33:47;98190.50;;;16.15;65.42
2785;BME280;57944;48.722;9.316;2023-03-21T07:36:19;98183.47;;;16.69;57.80
2785;BME280;57944;48.722;9.316;2023-03-21T07:38:49;98181.91;;;17.20;56.02
2785;BME280;57944;48.722;9.316;2023-03-21T07:41:22;98187.38;;;17.98;52.38
2785;BME280;57944;48.722;9.316;2023-03-21T07:43:59;98186.31;;;17.37;52.80
2785;BME280;57944;48.722;9.316;2023-03-21T07:46:32;98193.75;;;16.34;55.27
2785;BME280;57944;48.722;9.316;2023-03-21T07:49:02;98201.34;;;15.94;56.79
2785;BME280;57944;48.722;9.316;2023-03-21T07:51:34;98197.13;;;15.51;58.97
2785;BME280;57944;48.722;9.316;2023-03-21T07:54:04;98194.94;;;15.24;61.48
2785;BME280;57944;48.722;9.316;2023-03-21T07:56:34;98189.50;;;15.14;62.99
2785;BME280;57944;48.722;9.316;2023-03-21T07:59:04;98189.47;;;16.04;59.07
2785;BME280;57944;48.722;9.316;2023-03-21T08:01:34;98196.22;;;17.74;53.14
2785;BME280;57944;48.722;9.316;2023-03-21T08:04:04;98197.81;;;19.74;46.99
2785;BME280;57944;48.722;9.316;2023-03-21T08:06:37;98195.88;;;19.37;46.00
2785;BME280;57944;48.722;9.316;2023-03-21T08:09:06;98198.78;;;18.36;47.82
2785;BME280;57944;48.722;9.316;2023-03-21T08:11:36;98197.53;;;17.88;48.51
2785;BME280;57944;48.722;9.316;2023-03-21T08:14:06;98193.28;;;18.33;48.76
2785;BME280;57944;48.722;9.316;2023-03-21T08:16:36;98185.81;;;18.31;48.17
2785;BME280;57944;48.722;9.316;2023-03-21T08:19:06;98181.56;;;18.42;47.62
2785;BME280;57944;48.722;9.316;2023-03-21T08:21:38;98191.94;;;18.64;47.55
2785;BME280;57944;48.722;9.316;2023-03-21T08:24:08;98184.78;;;18.71;47.13
2785;BME280;57944;48.722;9.316;2023-03-21T08:26:38;98182.13;;;17.93;48.33
2785;BME280;57944;48.722;9.316;2023-03-21T08:29:08;98180.66;;;17.97;49.01
2785;BME280;57944;48.722;9.316;2023-03-21T08:31:39;98173.78;;;18.20;47.88
2785;BME280;57944;48.722;9.316;2023-03-21T08:34:08;98167.81;;;18.97;47.11
2785;BME280;57944;48.722;9.316;2023-03-21T08:36:42;98167.09;;;19.02;45.61
2785;BME280;57944;48.722;9.316;2023-03-21T08:39:12;98168.13;;;20.19;43.11
2785;BME280;57944;48.722;9.316;2023-03-21T08:41:42;98170.22;;;20.60;42.12
2785;BME280;57944;48.722;9.316;2023-03-21T08:44:12;98165.56;;;21.91;40.69
2785;BME280;57944;48.722;9.316;2023-03-21T08:46:42;98158.22;;;23.14;38.35
2785;BME280;57944;48.722;9.316;2023-03-21T08:49:12;98153.66;;;23.35;36.96
2785;BME280;57944;48.722;9.316;2023-03-21T08:51:45;98157.22;;;22.30;38.56
2785;BME280;57944;48.722;9.316;2023-03-21T08:54:18;98152.53;;;23.12;37.18
2785;BME280;57944;48.722;9.316;2023-03-21T08:56:49;98152.19;;;24.46;35.71
2785;BME280;57944;48.722;9.316;2023-03-21T08:59:18;98149.34;;;24.42;34.94
2785;BME280;57944;48.722;9.316;2023-03-21T09:01:49;98144.38;;;24.89;35.02
2785;BME280;57944;48.722;9.316;2023-03-21T09:04:19;98139.81;;;25.37;33.98
2785;BME280;57944;48.722;9.316;2023-03-21T09:06:54;98146.59;;;25.19;34.17
2785;BME280;57944;48.722;9.316;2023-03-21T09:09:27;98146.50;;;26.23;32.90
2785;BME280;57944;48.722;9.316;2023-03-21T09:11:57;98144.25;;;26.02;32.78
2785;BME280;57944;48.722;9.316;2023-03-21T09:14:27;98140.78;;;26.62;31.40
2785;BME280;57944;48.722;9.316;2023-03-21T09:16:57;98136.25;;;25.14;33.63
2785;BME280;57944;48.722;9.316;2023-03-21T09:19:26;98140.91;;;24.26;34.99
2785;BME280;57944;48.722;9.316;2023-03-21T09:22:00;98146.91;;;24.75;34.22
2785;BME280;57944;48.722;9.316;2023-03-21T09:24:30;98141.72;;;24.94;33.89
2785;BME280;57944;48.722;9.316;2023-03-21T09:27:00;98137.75;;;25.34;32.86
2785;BME280;57944;48.722;9.316;2023-03-21T09:29:30;98140.69;;;25.79;32.25
2785;BME280;57944;48.722;9.316;2023-03-21T09:32:00;98137.41;;;25.03;33.15
2785;BME280;57944;48.722;9.316;2023-03-21T09:34:32;98128.97;;;24.49;33.37
2785;BME280;57944;48.722;9.316;2023-03-21T09:37:06;98136.06;;;24.87;32.84
2785;BME280;57944;48.722;9.316;2023-03-21T09:39:37;98131.84;;;25.29;32.38
2785;BME280;57944;48.722;9.316;2023-03-21T09:42:16;98131.06;;;25.09;32.08
2785;BME280;57944;48.722;9.316;2023-03-21T09:44:55;98130.13;;;24.14;34.03
2785;BME280;57944;48.722;9.316;2023-03-21T09:47:29;98122.28;;;22.67;35.73
2785;BME280;57944;48.722;9.316;2023-03-21T09:50:03;98119.81;;;21.03;38.49
2785;BME280;57944;48.722;9.316;2023-03-21T09:52:48;98112.97;;;20.61;39.21
2785;BME280;57944;48.722;9.316;2023-03-21T09:55:21;98113.13;;;19.32;41.79
2785;BME280;57944;48.722;9.316;2023-03-21T09:58:01;98112.91;;;19.66;41.42
2785;BME280;57944;48.722;9.316;2023-03-21T10:00:36;98113.34;;;20.33;40.10
2785;BME280;57944;48.722;9.316;2023-03-21T10:03:18;98103.84;;;20.48;39.56
2785;BME280;57944;48.722;9.316;2023-03-21T10:05:51;98105.28;;;20.92;38.89
2785;BME280;57944;48.722;9.316;2023-03-21T10:08:28;98105.91;;;21.60;38.23
2785;BME280;57944;48.722;9.316;2023-03-21T10:11:05;98109.19;;;22.17;37.24
2785;BME280;57944;48.722;9.316;2023-03-21T10:13:42;98098.72;;;22.53;35.66
2785;BME280;57944;48.722;9.316;2023-03-21T10:16:15;98099.19;;;23.49;34.52
2785;BME280;57944;48.722;9.316;2023-03-21T10:18:47;98091.97;;;23.75;33.81
2785;BME280;57944;48.722;9.316;2023-03-21T10:21:20;98088.72;;;23.89;33.04
2785;BME280;57944;48.722;9.316;2023-03-21T10:24:15;98087.22;;;24.30;32.80
2785;BME280;57944;48.722;9.316;2023-03-21T10:26:47;98089.53;;;24.56;32.63
2785;BME280;57944;48.722;9.316;2023-03-21T10:29:21;98082.91;;;24.45;32.58
2785;BME280;57944;48.722;9.316;2023-03-21T10:31:53;98079.97;;;24.27;32.83
2785;BME280;57944;48.722;9.316;2023-03-21T10:34:29;98078.69;;;24.25;33.21
2785;BME280;57944;48.722;9.316;2023-03-21T10:37:01;98066.13;;;24.08;33.67
2785;BME280;57944;48.722;9.316;2023-03-21T10:39:36;98066.38;;;23.24;34.57
2785;BME280;57944;48.722;9.316;2023-03-21T10:42:16;98067.88;;;23.30;33.99
2785;BME280;57944;48.722;9.316;2023-03-21T10:44:49;98068.69;;;23.26;34.57
2785;BME280;57944;48.722;9.316;2023-03-21T10:47:20;98067.91;;;23.25;33.86
2785;BME280;57944;48.722;9.316;2023-03-21T10:49:51;98065.94;;;23.46;34.32
2785;BME280;57944;48.722;9.316;2023-03-21T10:52:34;98067.50;;;24.24;33.11
2785;BME280;57944;48.722;9.316;2023-03-21T10:55:16;98066.88;;;24.75;32.39
2785;BME280;57944;48.722;9.316;2023-03-21T10:57:48;98060.31;;;24.78;31.58
2785;BME280;57944;48.722;9.316;2023-03-21T11:00:24;98064.34;;;24.70;31.09
2785;BME280;57944;48.722;9.316;2023-03-21T11:02:56;98068.03;;;23.73;33.75
2785;BME280;57944;48.722;9.316;2023-03-21T11:05:33;98061.00;;;23.45;33.84
2785;BME280;57944;48.722;9.316;2023-03-21T11:08:05;98066.13;;;22.26;35.27
2785;BME280;57944;48.722;9.316;2023-03-21T11:10:52;98066.75;;;23.07;34.38
2785;BME280;57944;48.722;9.316;2023-03-21T11:13:24;98064.66;;;21.69;36.51
2785;BME280;57944;48.722;9.316;2023-03-21T11:15:57;98063.25;;;22.23;35.86
2785;BME280;57944;48.722;9.316;2023-03-21T11:18:32;98052.31;;;22.36;34.91
2785;BME280;57944;48.722;9.316;2023-03-21T11:21:04;98041.69;;;22.82;34.45
2785;BME280;57944;48.722;9.316;2023-03-21T11:23:38;98052.28;;;23.30;33.20
2785;BME280;57944;48.722;9.316;2023-03-21T11:26:17;98058.03;;;24.09;32.08
2785;BME280;57944;48.722;9.316;2023-03-21T11:28:50;98038.88;;;25.00;31.25
2785;BME280;57944;48.722;9.316;2023-03-21T11:31:20;98044.78;;;25.25;30.53
2785;BME280;57944;48.722;9.316;2023-03-21T11:33:54;98041.75;;;25.17;30.61
2785;BME280;57944;48.722;9.316;2023-03-21T11:36:31;98032.41;;;23.69;32.51
2785;BME280;57944;48.722;9.316;2023-03-21T11:39:27;98035.72;;;23.21;32.94
2785;BME280;57944;48.722;9.316;2023-03-21T11:42:01;98036.34;;;22.63;32.67
2785;BME280;57944;48.722;9.316;2023-03-21T11:44:34;98028.06;;;22.51;33.40
2785;BME280;57944;48.722;9.316;2023-03-21T11:47:10;98027.19;;;22.71;32.54
2785;BME280;57944;48.722;9.316;2023-03-21T11:49:40;98020.38;;;22.80;33.33
2785;BME280;57944;48.722;9.316;2023-03-21T11:52:18;98010.34;;;22.63;33.37
2785;BME280;57944;48.722;9.316;2023-03-21T11:58:02;98007.28;;;21.81;33.77
2785;BME280;57944;48.722;9.316;2023-03-21T12:00:47;98005.81;;;20.88;35.83
2785;BME280;57944;48.722;9.316;2023-03-21T12:03:38;98000.13;;;20.96;35.60
2785;BME280;57944;48.722;9.316;2023-03-21T12:06:24;97990.06;;;20.11;37.79
2785;BME280;57944;48.722;9.316;2023-03-21T12:09:15;97987.00;;;20.24;37.75
2785;BME280;57944;48.722;9.316;2023-03-21T12:12:00;97984.03;;;19.90;38.02
2785;BME280;57944;48.722;9.316;2023-03-21T12:14:43;97980.03;;;19.67;38.90
2785;BME280;57944;48.722;9.316;2023-03-21T12:17:24;97976.81;;;19.92;36.94
2785;BME280;57944;48.722;9.316;2023-03-21T12:20:04;97973.97;;;19.99;37.31
2785;BME280;57944;48.722;9.316;2023-03-21T12:22:45;97976.78;;;20.86;35.81
2785;BME280;57944;48.722;9.316;2023-03-21T12:25:21;97973.13;;;20.66;35.75
2785;BME280;57944;48.722;9.316;2023-03-21T12:28:01;97972.03;;;20.47;35.86
2785;BME280;57944;48.722;9.316;2023-03-21T12:30:49;97959.88;;;20.52;36.57
2785;BME280;57944;48.722;9.316;2023-03-21T12:33:31;97960.66;;;20.48;36.37
2785;BME280;57944;48.722;9.316;2023-03-21T12:36:12;97957.28;;;20.37;36.50
2785;BME280;57944;48.722;9.316;2023-03-21T12:38:51;97951.94;;;20.95;35.80
2785;BME280;57944;48.722;9.316;2023-03-21T12:41:32;97957.63;;;21.02;35.39
2785;BME280;57944;48.722;9.316;2023-03-21T12:44:04;97951.91;;;20.74;35.39
2785;BME280;57944;48.722;9.316;2023-03-21T12:46:43;97942.97;;;20.09;36.03
2785;BME280;57944;48.722;9.316;2023-03-21T12:49:17;97948.13;;;20.04;36.68
2785;BME280;57944;48.722;9.316;2023-03-21T12:51:52;97948.09;;;19.94;36.65
2785;BME280;57944;48.722;9.316;2023-03-21T12:54:27;97951.50;;;20.09;35.96
2785;BME280;57944;48.722;9.316;2023-03-21T12:57:03;97952.19;;;20.68;34.73
2785;BME280;57944;48.722;9.316;2023-03-21T12:59:40;97942.91;;;19.94;36.00
2785;BME280;57944;48.722;9.316;2023-03-21T13:02:21;97945.09;;;20.33;35.99
2785;BME280;57944;48.722;9.316;2023-03-21T13:04:58;97947.25;;;20.71;35.10
2785;BME280;57944;48.722;9.316;2023-03-21T13:07:34;97937.53;;;20.00;36.44
2785;BME280;57944;48.722;9.316;2023-03-21T13:10:12;97934.09;;;19.84;35.61
2785;BME280;57944;48.722;9.316;2023-03-21T13:12:47;97934.91;;;20.05;36.16
2785;BME280;57944;48.722;9.316;2023-03-21T13:15:37;97930.88;;;20.35;36.04
2785;BME280;57944;48.722;9.316;2023-03-21T13:18:18;97933.25;;;20.78;35.37
2785;BME280;57944;48.722;9.316;2023-03-21T13:20:54;97921.59;;;21.16;34.24
2785;BME280;57944;48.722;9.316;2023-03-21T13:23:33;97931.72;;;20.92;35.33
2785;BME280;57944;48.722;9.316;2023-03-21T13:26:07;97922.56;;;21.56;34.01
2785;BME280;57944;48.722;9.316;2023-03-21T13:28:39;97918.59;;;21.79;33.71
2785;BME280;57944;48.722;9.316;2023-03-21T13:31:20;97923.19;;;21.92;33.53
2785;BME280;57944;48.722;9.316;2023-03-21T13:33:54;97914.31;;;22.03;33.09
2785;BME280;57944;48.722;9.316;2023-03-21T13:36:28;97909.84;;;21.59;33.35
2785;BME280;57944;48.722;9.316;2023-03-21T13:39:00;97908.69;;;21.86;33.53
2785;BME280;57944;48.722;9.316;2023-03-21T13:41:34;97911.97;;;21.27;33.78
2785;BME280;57944;48.722;9.316;2023-03-21T13:44:15;97913.00;;;21.31;34.64
2785;BME280;57944;48.722;9.316;2023-03-21T13:46:53;97905.28;;;20.74;35.87
2785;BME280;57944;48.722;9.316;2023-03-21T13:49:29;97905.31;;;20.95;34.93
2785;BME280;57944;48.722;9.316;2023-03-21T13:52:00;97899.56;;;21.18;35.03
2785;BME280;57944;48.722;9.316;2023-03-21T13:54:48;97897.13;;;21.63;33.58
2785;BME280;57944;48.722;9.316;2023-03-21T13:57:36;97891.59;;;21.80;33.47
2785;BME280;57944;48.722;9.316;2023-03-21T14:00:18;97887.91;;;21.91;33.20
2785;BME280;57944;48.722;9.316;2023-03-21T14:02:54;97884.31;;;21.87;34.13
2785;BME280;57944;48.722;9.316;2023-03-21T14:05:28;97886.13;;;21.06;35.00
2785;BME280;57944;48.722;9.316;2023-03-21T14:08:01;97892.06;;;20.56;35.77
2785;BME280;57944;48.722;9.316;2023-03-21T14:10:45;97892.88;;;20.66;35.23
2785;BME280;57944;48.722;9.316;2023-03-21T14:13:18;97887.16;;;20.80;35.65
2785;BME280;57944;48.722;9.316;2023-03-21T14:15:51;97888.19;;;20.99;34.73
2785;BME280;57944;48.722;9.316;2023-03-21T14:18:25;97888.13;;;21.25;34.39
2785;BME280;57944;48.722;9.316;2023-03-21T14:21:20;97875.19;;;21.14;34.33